sensor_id;sensor_type;location;lat;lon;timestamp;pressure;altitude;pressure_sealevel;temperature;humidity
30744;BME280;17486;46.738;7.622;2023-07-13T18:15:11;95481.59;;;27.05;41.77
30744;BME280;17486;46.738;7.622;2023-07-13T18:17:37;95487.97;;;26.95;42.16
30744;BME280;17486;46.738;7.622;2023-07-13T18:20:03;95471.16;;;26.78;42.44
30744;BME280;17486;46.738;7.622;2023-07-13T18:22:37;95484.50;;;26.78;42.66
30744;BME280;17486;46.738;7.622;2023-07-13T18:25:13;95486.31;;;26.70;42.70
30744;BME280;17486;46.738;7.622;2023-07-13T18:27:39;95481.84;;;26.62;42.95
30744;BME280;17486;46.738;7.622;2023-07-13T18:30:05;95476.88;;;26.51;42.73
30744;BME280;17486;46.738;7.622;2023-07-13T18:32:33;95466.22;;;26.34;42.94
30744;BME280;17486;46.738;7.622;2023-07-13T18:35:02;95478.41;;;26.28;42.74
30744;BME280;17486;46.738;7.622;2023-07-13T18:37:30;95484.25;;;26.15;43.98
30744;BME280;17486;46.738;7.622;2023-07-13T18:39:56;95492.25;;;26.07;44.46
30744;BME280;17486;46.738;7.622;2023-07-13T18:42:21;95491.38;;;25.98;44.60
30744;BME280;17486;46.738;7.622;2023-07-13T18:44:49;95476.53;;;25.79;45.17
30744;BME280;17486;46.738;7.622;2023-07-13T18:47:20;95475.31;;;25.49;46.21
30744;BME280;17486;46.738;7.622;2023-07-13T18:49:48;95493.59;;;25.44;46.13
30744;BME280;17486;46.738;7.622;2023-07-13T18:52:18;95496.38;;;25.34;46.27
30744;BME280;17486;46.738;7.622;2023-07-13T18:54:45;95484.50;;;25.12;45.75
30744;BME280;17486;46.738;7.622;2023-07-13T18:57:11;95490.25;;;24.99;46.38
30744;BME280;17486;46.738;7.622;2023-07-13T18:59:36;95500.97;;;24.81;46.34
30744;BME280;17486;46.738;7.622;2023-07-13T19:02:03;95498.59;;;24.70;46.65
30744;BME280;17486;46.738;7.622;2023-07-13T19:04:30;95498.13;;;24.56;47.29
30744;BME280;17486;46.738;7.622;2023-07-13T19:06:57;95498.41;;;24.45;48.17
30744;BME280;17486;46.738;7.622;2023-07-13T19:09:23;95484.72;;;24.31;48.28
30744;BME280;17486;46.738;7.622;2023-07-13T19:11:50;95500.66;;;24.31;48.44
30744;BME280;17486;46.738;7.622;2023-07-13T19:14:19;95475.91;;;24.13;48.90
30744;BME280;17486;46.738;7.622;2023-07-13T19:16:45;95498.03;;;24.13;49.37
30744;BME280;17486;46.738;7.622;2023-07-13T19:19:15;95495.44;;;24.04;49.81
30744;BME280;17486;46.738;7.622;2023-07-13T19:21:41;95500.38;;;23.98;50.12
30744;BME280;17486;46.738;7.622;2023-07-13T19:24:37;95499.34;;;23.91;50.31
30744;BME280;17486;46.738;7.622;2023-07-13T19:27:04;95495.53;;;23.94;50.28
30744;BME280;17486;46.738;7.622;2023-07-13T19:29:29;95505.47;;;23.92;50.66
30744;BME280;17486;46.738;7.622;2023-07-13T19:31:55;95489.22;;;23.77;50.93
30744;BME280;17486;46.738;7.622;2023-07-13T19:34:25;95511.13;;;23.79;50.66
30744;BME280;17486;46.738;7.622;2023-07-13T19:36:58;95496.22;;;23.50;50.87
30744;BME280;17486;46.738;7.622;2023-07-13T19:39:28;95498.88;;;23.50;50.65
30744;BME280;17486;46.738;7.622;2023-07-13T19:42:01;95513.53;;;23.54;51.17
30744;BME280;17486;46.738;7.622;2023-07-13T19:44:28;95518.84;;;23.54;51.30
30744;BME280;17486;46.738;7.622;2023-07-13T19:46:54;95511.72;;;23.55;51.54
30744;BME280;17486;46.738;7.622;2023-07-13T19:49:24;95517.19;;;23.53;51.25
30744;BME280;17486;46.738;7.622;2023-07-13T19:51:49;95515.53;;;23.52;51.40
30744;BME280;17486;46.738;7.622;2023-07-13T19:54:15;95513.03;;;23.50;51.28
30744;BME280;17486;46.738;7.622;2023-07-13T19:56:44;95519.00;;;23.52;51.14
30744;BME280;17486;46.738;7.622;2023-07-13T19:59:26;95534.50;;;23.57;51.14
30744;BME280;17486;46.738;7.622;2023-07-13T20:01:52;95543.13;;;23.59;50.89
30744;BME280;17486;46.738;7.622;2023-07-13T20:04:18;95533.28;;;23.51;50.86
30744;BME280;17486;46.738;7.622;2023-07-13T20:06:44;95545.94;;;23.58;51.03
30744;BME280;17486;46.738;7.622;2023-07-13T20:09:20;95535.16;;;23.41;51.11
30744;BME280;17486;46.738;7.622;2023-07-13T20:11:46;95553.28;;;23.46;51.09
30744;BME280;17486;46.738;7.622;2023-07-13T20:14:20;95556.25;;;23.43;51.09
30744;BME280;17486;46.738;7.622;2023-07-13T20:16:46;95533.81;;;23.27;51.43
30744;BME280;17486;46.738;7.622;2023-07-13T20:19:13;95565.56;;;23.47;51.12
30744;BME280;17486;46.738;7.622;2023-07-13T20:21:39;95548.56;;;23.40;51.29
30744;BME280;17486;46.738;7.622;2023-07-13T20:24:17;95561.94;;;23.48;50.92
30744;BME280;17486;46.738;7.622;2023-07-13T20:26:44;95559.97;;;23.50;51.19
30744;BME280;17486;46.738;7.622;2023-07-13T20:29:14;95562.91;;;23.47;51.30
30744;BME280;17486;46.738;7.622;2023-07-13T20:31:41;95544.53;;;23.35;51.34
30744;BME280;17486;46.738;7.622;2023-07-13T20:34:13;95562.53;;;23.42;51.44
30744;BME280;17486;46.738;7.622;2023-07-13T20:36:40;95561.31;;;23.36;51.71
30744;BME280;17486;46.738;7.622;2023-07-13T20:39:09;95564.38;;;23.31;51.63
30744;BME280;17486;46.738;7.622;2023-07-13T20:41:34;95565.81;;;23.26;51.91
30744;BME280;17486;46.738;7.622;2023-07-13T20:44:00;95569.88;;;23.20;51.83
30744;BME280;17486;46.738;7.622;2023-07-13T20:46:25;95572.84;;;23.17;51.84
30744;BME280;17486;46.738;7.622;2023-07-13T20:48:51;95560.41;;;23.08;51.91
30744;BME280;17486;46.738;7.622;2023-07-13T20:51:19;95565.72;;;23.08;51.83
30744;BME280;17486;46.738;7.622;2023-07-13T20:53:48;95570.63;;;23.02;52.01
30744;BME280;17486;46.738;7.622;2023-07-13T20:56:19;95551.94;;;22.94;52.07
30744;BME280;17486;46.738;7.622;2023-07-13T20:58:45;95558.94;;;22.95;51.89
30744;BME280;17486;46.738;7.622;2023-07-13T21:01:16;95561.31;;;22.89;51.53
30744;BME280;17486;46.738;7.622;2023-07-13T21:03:43;95568.75;;;22.85;51.08
30744;BME280;17486;46.738;7.622;2023-07-13T21:06:17;95567.63;;;22.78;50.78
30744;BME280;17486;46.738;7.622;2023-07-13T21:08:43;95565.56;;;22.72;50.90
30744;BME280;17486;46.738;7.622;2023-07-13T21:11:10;95580.06;;;22.67;51.12
30744;BME280;17486;46.738;7.622;2023-07-13T21:13:35;95584.97;;;22.62;51.28
30744;BME280;17486;46.738;7.622;2023-07-13T21:16:17;95585.56;;;22.56;51.28
30744;BME280;17486;46.738;7.622;2023-07-13T21:18:44;95576.63;;;22.47;51.12
30744;BME280;17486;46.738;7.622;2023-07-13T21:21:12;95575.66;;;22.48;50.96
30744;BME280;17486;46.738;7.622;2023-07-13T21:23:39;95575.66;;;22.48;50.90
30744;BME280;17486;46.738;7.622;2023-07-13T21:26:06;95577.03;;;22.43;50.94
30744;BME280;17486;46.738;7.622;2023-07-13T21:28:40;95565.03;;;22.29;51.22
30744;BME280;17486;46.738;7.622;2023-07-13T21:31:10;95573.53;;;22.23;51.19
30744;BME280;17486;46.738;7.622;2023-07-13T21:33:36;95563.22;;;22.10;51.25
30744;BME280;17486;46.738;7.622;2023-07-13T21:36:03;95576.63;;;22.18;51.80
30744;BME280;17486;46.738;7.622;2023-07-13T21:38:37;95579.53;;;22.15;52.15
30744;BME280;17486;46.738;7.622;2023-07-13T21:41:14;95570.19;;;22.11;52.12
30744;BME280;17486;46.738;7.622;2023-07-13T21:43:40;95569.47;;;22.09;52.20
30744;BME280;17486;46.738;7.622;2023-07-13T21:46:12;95567.00;;;21.97;52.05
30744;BME280;17486;46.738;7.622;2023-07-13T21:48:38;95571.72;;;21.94;52.30
30744;BME280;17486;46.738;7.622;2023-07-13T21:51:14;95580.78;;;21.91;52.39
30744;BME280;17486;46.738;7.622;2023-07-13T21:53:41;95575.06;;;21.86;52.66
30744;BME280;17486;46.738;7.622;2023-07-13T21:56:10;95587.19;;;21.79;53.14
30744;BME280;17486;46.738;7.622;2023-07-13T21:58:35;95583.16;;;21.75;52.93
30744;BME280;17486;46.738;7.622;2023-07-13T22:01:02;95582.00;;;21.67;52.70
30744;BME280;17486;46.738;7.622;2023-07-13T22:03:31;95585.91;;;21.63;53.01
30744;BME280;17486;46.738;7.622;2023-07-13T22:05:58;95580.03;;;21.60;52.86
30744;BME280;17486;46.738;7.622;2023-07-13T22:08:32;95556.13;;;21.40;52.94
30744;BME280;17486;46.738;7.622;2023-07-13T22:11:08;95582.63;;;21.50;53.06
30744;BME280;17486;46.738;7.622;2023-07-13T22:13:34;95572.16;;;21.48;53.49
30744;BME280;17486;46.738;7.622;2023-07-13T22:16:00;95556.13;;;21.30;53.36
30744;BME280;17486;46.738;7.622;2023-07-13T22:18:25;95579.13;;;21.40;53.60
30744;BME280;17486;46.738;7.622;2023-07-13T22:20:52;95579.66;;;21.33;53.56
30744;BME280;17486;46.738;7.622;2023-07-13T22:23:20;95580.31;;;21.26;53.34
30744;BME280;17486;46.738;7.622;2023-07-13T22:25:48;95582.13;;;21.25;52.83
30744;BME280;17486;46.738;7.622;2023-07-13T22:28:16;95576.28;;;21.22;52.78
30744;BME280;17486;46.738;7.622;2023-07-13T22:30:44;95585.31;;;21.19;52.94
30744;BME280;17486;46.738;7.622;2023-07-13T22:33:14;95586.41;;;21.16;52.84
30744;BME280;17486;46.738;7.622;2023-07-13T22:35:40;95579.00;;;21.10;52.81
30744;BME280;17486;46.738;7.622;2023-07-13T22:38:20;95581.63;;;21.00;52.90
30744;BME280;17486;46.738;7.622;2023-07-13T22:40:46;95588.91;;;21.08;52.93
30744;BME280;17486;46.738;7.622;2023-07-13T22:45:42;95591.22;;;21.01;53.01
30744;BME280;17486;46.738;7.622;2023-07-13T22:48:26;95583.53;;;20.98;52.96
30744;BME280;17486;46.738;7.622;2023-07-13T22:50:52;95589.78;;;20.97;53.08
30744;BME280;17486;46.738;7.622;2023-07-13T22:53:38;95588.66;;;20.90;53.16
30744;BME280;17486;46.738;7.622;2023-07-13T22:56:04;95590.59;;;20.88;53.20
30744;BME280;17486;46.738;7.622;2023-07-13T22:58:29;95591.81;;;20.84;52.99
30744;BME280;17486;46.738;7.622;2023-07-13T23:00:59;95587.78;;;20.80;53.16
30744;BME280;17486;46.738;7.622;2023-07-13T23:03:31;95598.75;;;20.75;53.10
30744;BME280;17486;46.738;7.622;2023-07-13T23:05:58;95597.91;;;20.75;53.12
30744;BME280;17486;46.738;7.622;2023-07-13T23:08:26;95592.88;;;20.72;52.89
30744;BME280;17486;46.738;7.622;2023-07-13T23:10:53;95575.81;;;20.64;52.85
30744;BME280;17486;46.738;7.622;2023-07-13T23:13:27;95565.06;;;20.56;52.68
30744;BME280;17486;46.738;7.622;2023-07-13T23:15:53;95584.59;;;20.65;52.67
30744;BME280;17486;46.738;7.622;2023-07-13T23:18:18;95586.53;;;20.63;52.90
30744;BME280;17486;46.738;7.622;2023-07-13T23:20:44;95573.72;;;20.58;53.02
30744;BME280;17486;46.738;7.622;2023-07-13T23:23:11;95582.94;;;20.43;52.97
30744;BME280;17486;46.738;7.622;2023-07-13T23:25:37;95573.38;;;20.30;53.16
30744;BME280;17486;46.738;7.622;2023-07-13T23:28:03;95578.47;;;20.22;53.42
30744;BME280;17486;46.738;7.622;2023-07-13T23:30:30;95549.97;;;20.04;53.59
30744;BME280;17486;46.738;7.622;2023-07-13T23:35:48;95574.66;;;20.15;53.65
30744;BME280;17486;46.738;7.622;2023-07-13T23:38:15;95563.97;;;20.16;53.94
30744;BME280;17486;46.738;7.622;2023-07-13T23:40:40;95553.19;;;20.08;53.88
30744;BME280;17486;46.738;7.622;2023-07-13T23:43:06;95561.56;;;20.13;54.01
30744;BME280;17486;46.738;7.622;2023-07-13T23:45:32;95546.63;;;20.02;54.06
30744;BME280;17486;46.738;7.622;2023-07-13T23:47:58;95557.28;;;20.12;54.29
30744;BME280;17486;46.738;7.622;2023-07-13T23:50:28;95558.22;;;20.11;54.24
30744;BME280;17486;46.738;7.622;2023-07-13T23:52:54;95559.31;;;20.09;54.61
30744;BME280;17486;46.738;7.622;2023-07-13T23:55:30;95528.78;;;19.95;54.62
30744;BME280;17486;46.738;7.622;2023-07-13T23:57:58;95547.34;;;20.04;54.82
